Terminal Aerodrome Forecast
Issued by NWS

Home | Current Version | Previous Version | Text Only | Print | Product List | Glossary On
Versions: 1 2 3 4 5 6 7 8 9 10 11 12 13 14 15 16 17 18 19 20 21 22 23 24
000
FTUS41 KOKX 261700
TAFSWF
TAF
KSWF 261739Z 2618/2724 06008KT 2SM -SN BR SCT010 OVC025
     FM262000 06012G18KT 1SM -SN BR BKN007
     FM262300 04014G22KT 3/4SM -SN BR BKN007
     FM270300 04017G25KT 1/2SM SN FZFG VV005
     FM270700 01016G28KT 1/2SM SN FZFG VV005
     FM271500 34016G30KT 1/2SM SN FZFG VV008
      AMD NOT SKED=

USA.gov is the U.S. government's official web portal to all federal, state and local government web resources and services.